Time;durP1;ratioP1;P1;durP2;ratioP2;P2;SDS_P1;SDS_P2;PMS_P1;PMS_P2;Temp;Humidity;BMP_temperature;BMP_pressure;BME280_temperature;BME280_humidity;BME280_pressure;Samples;Min_cycle;Max_cycle;Signal;HPM_P1;HPM_P2
2022/03/09 00:01:56;;;;;;;4.23;3.40;;;;;;;-1.93;67.22;99823.84;8379286;28;20057;-77
2022/03/09 00:05:58;;;;;;;2.78;2.28;;;;;;;-1.94;67.55;99822.09;8401840;28;20040;-77
2022/03/09 00:09:59;;;;;;;5.07;3.63;;;;;;;-2.01;67.82;99822.56;8389092;28;20088;-77
2022/03/09 00:14:02;;;;;;;5.63;3.67;;;;;;;-2.03;67.37;99834.34;8389237;28;20627;-77
2022/03/09 00:18:03;;;;;;;3.63;2.88;;;;;;;-2.02;68.13;99832.66;8371678;28;20092;-77
2022/03/09 00:22:05;;;;;;;3.20;2.73;;;;;;;-2.04;67.28;99829.16;8345456;28;20083;-77
2022/03/09 00:26:07;;;;;;;3.83;2.10;;;;;;;-2.10;67.79;99839.03;8373671;28;20052;-76
2022/03/09 00:30:09;;;;;;;7.50;3.13;;;;;;;-2.13;68.09;99837.22;8338506;28;20084;-76
2022/03/09 00:34:11;;;;;;;7.47;2.90;;;;;;;-2.15;68.25;99848.97;8684113;22;20076;-77
2022/03/09 00:38:12;;;;;;;3.83;3.20;;;;;;;-2.20;68.40;99848.72;8310103;28;20088;-77
2022/03/09 00:42:14;;;;;;;3.60;2.90;;;;;;;-2.32;68.71;99849.75;8309341;28;20051;-76
2022/03/09 00:46:15;;;;;;;5.40;3.23;;;;;;;-2.35;68.33;99849.56;8318399;28;20441;-76
2022/03/09 00:50:17;;;;;;;5.03;3.00;;;;;;;-2.40;69.04;99841.69;8357289;28;20060;-75
2022/03/09 00:54:18;;;;;;;4.17;2.57;;;;;;;-2.39;68.35;99855.28;8349440;28;20072;-76
2022/03/09 00:58:20;;;;;;;3.43;2.87;;;;;;;-2.40;68.78;99858.59;8351171;28;20139;-75
2022/03/09 01:02:21;;;;;;;3.07;2.77;;;;;;;-2.44;68.65;99868.63;8351996;28;20064;-75
2022/03/09 01:06:24;;;;;;;3.70;2.60;;;;;;;-2.55;68.93;99872.22;8347053;28;20060;-75
2022/03/09 01:10:25;;;;;;;3.50;2.50;;;;;;;-2.56;69.08;99878.09;8346287;28;20064;-74
2022/03/09 01:14:26;;;;;;;5.03;3.17;;;;;;;-2.57;68.96;99867.84;8353351;28;20051;-75
2022/03/09 01:18:28;;;;;;;4.97;3.17;;;;;;;-2.61;68.99;99873.56;8346857;28;20516;-74
2022/03/09 01:22:29;;;;;;;4.17;3.20;;;;;;;-2.66;69.27;99870.78;8344701;28;20169;-74
2022/03/09 01:26:31;;;;;;;4.27;2.80;;;;;;;-2.70;69.26;99870.50;8346558;28;20352;-74
2022/03/09 01:30:33;;;;;;;6.87;2.57;;;;;;;-2.67;69.79;99865.63;8341456;28;20581;-74
2022/03/09 01:34:34;;;;;;;4.93;3.25;;;;;;;-2.76;70.06;99861.75;8352179;28;20053;-74
2022/03/09 01:38:36;;;;;;;4.57;2.77;;;;;;;-2.75;69.88;99855.88;8348275;28;20127;-74
2022/03/09 01:42:37;;;;;;;4.07;2.80;;;;;;;-2.78;69.88;99860.78;8349881;28;20049;-75
2022/03/09 01:46:40;;;;;;;4.23;2.87;;;;;;;-2.83;70.07;99851.19;8341948;28;20052;-74
2022/03/09 01:50:43;;;;;;;5.53;3.15;;;;;;;-2.88;69.95;99855.97;8339628;28;20053;-74
2022/03/09 01:54:44;;;;;;;7.93;3.17;;;;;;;-2.90;69.96;99856.69;8351271;28;20405;-74
2022/03/09 01:58:46;;;;;;;5.17;2.40;;;;;;;-2.96;70.16;99866.53;8345482;28;20061;-74
2022/03/09 02:02:47;;;;;;;6.13;3.13;;;;;;;-3.00;70.16;99865.47;8348240;28;20519;-74
2022/03/09 02:06:49;;;;;;;3.95;3.13;;;;;;;-3.06;70.92;99867.66;8349730;28;20053;-74
2022/03/09 02:10:52;;;;;;;4.17;3.20;;;;;;;-3.11;71.52;99866.53;8346320;28;20080;-74
2022/03/09 02:14:54;;;;;;;5.40;3.38;;;;;;;-3.12;71.74;99873.25;8344174;28;20053;-74
2022/03/09 02:19:00;;;;;;;6.30;3.30;;;;;;;-3.14;72.01;99881.59;8340372;28;20155;-74
2022/03/09 02:23:01;;;;;;;5.23;3.13;;;;;;;-3.14;71.73;99882.47;8346906;28;20474;-74
2022/03/09 02:27:03;;;;;;;4.40;3.00;;;;;;;-3.16;71.82;99873.00;8348330;28;20472;-73
2022/03/09 02:31:05;;;;;;;7.23;3.40;;;;;;;-3.19;71.82;99873.72;8345293;28;20048;-74
2022/03/09 02:35:08;;;;;;;5.60;3.33;;;;;;;-3.30;72.27;99874.75;8345630;28;20049;-73
2022/03/09 02:39:09;;;;;;;4.13;2.67;;;;;;;-3.31;71.98;99860.31;8345177;28;20064;-73
2022/03/09 02:43:10;;;;;;;5.80;2.70;;;;;;;-3.35;72.11;99873.59;8345624;28;20135;-74
2022/03/09 02:47:12;;;;;;;3.53;2.73;;;;;;;-3.37;72.04;99873.53;8340823;28;20055;-73
2022/03/09 02:51:13;;;;;;;5.57;3.33;;;;;;;-3.45;71.88;99866.22;8345752;28;20429;-73
2022/03/09 02:55:15;;;;;;;4.47;3.10;;;;;;;-3.44;72.06;99867.97;8349723;28;20037;-73
2022/03/09 02:59:16;;;;;;;4.73;3.10;;;;;;;-3.48;71.93;99869.47;8350847;28;20048;-73
2022/03/09 03:03:18;;;;;;;5.73;2.53;;;;;;;-3.50;72.30;99881.19;8342753;28;20075;-73
2022/03/09 03:07:20;;;;;;;4.88;2.97;;;;;;;-3.51;72.14;99881.13;8345891;28;20053;-73
2022/03/09 03:11:21;;;;;;;2.20;2.00;;;;;;;-3.53;71.98;99878.50;8351849;28;20584;-73
2022/03/09 03:15:23;;;;;;;2.47;2.13;;;;;;;-3.58;71.97;99884.97;8349784;28;20099;-73
2022/03/09 03:19:24;;;;;;;4.23;2.87;;;;;;;-3.62;71.59;99887.19;8348738;28;20053;-73
2022/03/09 03:23:29;;;;;;;5.07;2.90;;;;;;;-3.67;71.84;99882.75;8353865;28;20084;-73
2022/03/09 03:27:31;;;;;;;4.97;2.83;;;;;;;-3.72;72.49;99874.00;8367986;28;20055;-73
2022/03/09 03:31:33;;;;;;;2.63;2.43;;;;;;;-3.73;72.28;99868.81;8350721;28;20063;-73
2022/03/09 03:35:35;;;;;;;;;;;;;;;-3.78;72.71;99870.19;8354405;28;20089;-73
2022/03/09 03:39:36;;;;;;;3.73;2.90;;;;;;;-3.81;72.72;99868.34;8347328;28;19956;-73
2022/03/09 03:43:37;;;;;;;3.07;2.53;;;;;;;-3.90;73.84;99872.03;8353126;28;20041;-72
2022/03/09 03:47:39;;;;;;;4.70;2.97;;;;;;;-3.93;74.43;99872.72;8351493;28;20100;-73
2022/03/09 03:51:40;;;;;;;4.83;3.03;;;;;;;-3.98;74.50;99867.34;8355723;28;20182;-72
2022/03/09 03:55:44;;;;;;;6.33;3.27;;;;;;;-3.96;74.71;99873.38;8354616;28;20085;-73
2022/03/09 03:59:45;;;;;;;3.83;3.07;;;;;;;-4.00;74.62;99873.97;8356237;28;20663;-73
2022/03/09 04:03:47;;;;;;;6.70;3.47;;;;;;;-4.02;74.44;99874.69;8350201;28;20080;-73
2022/03/09 04:07:48;;;;;;;6.50;3.33;;;;;;;-4.10;74.94;99879.28;8357425;28;20139;-73
2022/03/09 04:11:50;;;;;;;5.37;3.27;;;;;;;-4.06;74.45;99883.75;8350809;28;20092;-73
2022/03/09 04:15:51;;;;;;;4.20;3.13;;;;;;;-4.05;74.60;99889.72;8352159;28;20149;-73
2022/03/09 04:19:53;;;;;;;5.00;3.53;;;;;;;-4.05;73.97;99882.97;8351119;28;20563;-72
2022/03/09 04:23:54;;;;;;;6.73;3.83;;;;;;;-4.04;73.75;99888.94;8346486;28;20692;-73
2022/03/09 04:27:56;;;;;;;6.47;3.40;;;;;;;-4.06;73.56;99891.38;8345695;28;20084;-73
2022/03/09 04:31:57;;;;;;;7.13;4.20;;;;;;;-4.09;74.61;99888.66;8353656;28;20132;-72
2022/03/09 04:35:59;;;;;;;3.53;2.73;;;;;;;-4.13;73.51;99890.88;8345513;28;20052;-73
2022/03/09 04:40:03;;;;;;;4.22;3.70;;;;;;;-4.18;73.92;99899.88;8355077;28;20297;-73
2022/03/09 04:44:05;;;;;;;6.43;3.20;;;;;;;-4.24;74.23;99889.38;8343741;28;20060;-72
2022/03/09 04:48:06;;;;;;;3.43;3.10;;;;;;;-4.28;73.80;99896.78;8353164;28;20045;-73
2022/03/09 04:52:08;;;;;;;4.17;3.33;;;;;;;-4.29;74.60;99900.09;8352143;28;20148;-72
2022/03/09 04:56:09;;;;;;;4.97;3.10;;;;;;;-4.35;73.96;99893.75;8342501;28;20156;-72
2022/03/09 05:00:11;;;;;;;5.40;3.20;;;;;;;-4.37;74.52;99890.25;8354861;28;20695;-73
2022/03/09 05:04:13;;;;;;;4.50;2.85;;;;;;;-4.41;74.06;99894.25;8349811;28;20592;-73
2022/03/09 05:08:14;;;;;;;3.30;2.47;;;;;;;-4.47;74.93;99893.91;8351061;28;20508;-72
2022/03/09 05:12:16;;;;;;;5.07;2.97;;;;;;;-4.45;74.93;99893.97;8353175;28;20419;-73
2022/03/09 05:16:18;;;;;;;4.65;3.40;;;;;;;-4.43;74.74;99892.41;8346619;28;20049;-73
2022/03/09 05:20:21;;;;;;;7.85;3.30;;;;;;;-4.42;75.22;99897.59;8353155;28;20076;-73
2022/03/09 05:24:23;;;;;;;5.00;3.13;;;;;;;-4.42;75.33;99899.25;8354857;28;20051;-72
2022/03/09 05:28:24;;;;;;;5.80;3.72;;;;;;;-4.45;75.72;99899.06;8345418;28;20048;-72
2022/03/09 05:32:26;;;;;;;5.70;3.13;;;;;;;-4.49;74.86;99899.63;8347848;28;20464;-72
2022/03/09 05:36:27;;;;;;;8.40;3.10;;;;;;;-4.51;74.67;99909.66;8345236;28;20080;-72
2022/03/09 05:40:29;;;;;;;5.77;3.60;;;;;;;-4.54;74.52;99908.59;8347185;28;20495;-72
2022/03/09 05:44:30;;;;;;;9.10;4.43;;;;;;;-4.54;74.69;99906.94;8344244;28;20088;-73
2022/03/09 05:48:32;;;;;;;7.97;3.63;;;;;;;-4.56;74.85;99900.91;8351046;28;20071;-72
2022/03/09 05:52:34;;;;;;;5.10;3.10;;;;;;;-4.60;75.52;99906.56;8349523;28;20446;-72
2022/03/09 05:56:36;;;;;;;7.73;4.60;;;;;;;-4.60;76.01;99904.91;8345316;28;20140;-72
2022/03/09 06:00:37;;;;;;;7.05;3.53;;;;;;;-4.58;75.62;99916.00;8348018;28;20501;-73
2022/03/09 06:04:39;;;;;;;9.55;4.47;;;;;;;-4.60;75.66;99914.16;8349030;28;20045;-73
2022/03/09 06:08:40;;;;;;;6.80;4.27;;;;;;;-4.67;75.49;99909.47;8350976;28;20143;-73
2022/03/09 06:12:42;;;;;;;9.67;4.80;;;;;;;-4.70;75.26;99921.94;8346259;28;20127;-73
2022/03/09 06:16:44;;;;;;;9.37;4.47;;;;;;;-4.68;76.50;99920.38;8351042;28;20084;-73
2022/03/09 06:20:47;;;;;;;8.80;4.03;;;;;;;-4.63;76.00;99935.13;8347689;28;20053;-72
2022/03/09 06:24:48;;;;;;;5.53;3.65;;;;;;;-4.54;76.59;99936.47;8347559;28;20059;-73
2022/03/09 06:28:50;;;;;;;4.47;2.97;;;;;;;-4.47;75.46;99943.69;8345998;28;20128;-73
2022/03/09 06:32:51;;;;;;;7.10;3.93;;;;;;;-4.39;75.34;99943.38;8348226;28;20049;-73
2022/03/09 06:36:52;;;;;;;8.57;3.93;;;;;;;-4.29;75.34;99940.66;8314946;28;20084;-73
2022/03/09 06:40:54;;;;;;;6.90;3.77;;;;;;;-4.17;75.22;99948.13;8312427;28;20054;-73
2022/03/09 06:44:56;;;;;;;5.47;3.67;;;;;;;-4.06;74.86;99949.69;8310852;28;20045;-73
2022/03/09 06:48:57;;;;;;;8.35;4.05;;;;;;;-4.03;74.48;99949.88;8316754;28;20525;-73
2022/03/09 06:52:59;;;;;;;4.67;3.90;;;;;;;-3.86;74.31;99952.56;8313789;28;20136;-73
2022/03/09 06:57:01;;;;;;;6.15;4.00;;;;;;;-3.73;74.52;99963.56;8305069;28;20056;-73
2022/03/09 07:01:02;;;;;;;5.37;3.87;;;;;;;-3.56;74.08;99964.59;8314424;28;20085;-73
2022/03/09 07:05:05;;;;;;;29.27;11.82;;;;;;;-3.35;73.98;99970.06;8315371;28;20045;-73
2022/03/09 07:09:10;;;;;;;20.37;10.83;;;;;;;-3.11;73.88;99974.06;8308284;28;20056;-73
2022/03/09 07:13:12;;;;;;;8.30;5.20;;;;;;;-2.78;73.93;99980.22;8316019;28;20057;-74
2022/03/09 07:17:13;;;;;;;6.03;3.00;;;;;;;-2.18;71.32;99986.13;8312397;28;20390;-74
2022/03/09 07:21:15;;;;;;;5.87;4.00;;;;;;;-1.47;69.86;99981.50;8313886;28;20081;-74
2022/03/09 07:25:16;;;;;;;9.20;4.00;;;;;;;-0.99;68.04;99975.53;8316308;28;20049;-74
2022/03/09 07:29:18;;;;;;;5.10;4.27;;;;;;;-0.56;66.64;99976.78;8320872;28;20050;-74
2022/03/09 07:33:19;;;;;;;7.27;3.73;;;;;;;-0.10;65.00;99980.75;8323423;28;20140;-75
2022/03/09 07:37:21;;;;;;;6.97;4.20;;;;;;;0.35;63.09;99991.34;8354144;28;20072;-73
2022/03/09 07:41:22;;;;;;;5.43;3.93;;;;;;;0.73;61.67;99982.84;8349520;28;20853;-74
2022/03/09 07:45:24;;;;;;;6.17;3.60;;;;;;;1.08;60.91;99988.63;8347452;28;20055;-74
2022/03/09 07:49:26;;;;;;;5.00;4.10;;;;;;;1.26;59.79;99991.97;8353716;28;20057;-76
2022/03/09 07:53:27;;;;;;;4.57;3.97;;;;;;;1.48;58.40;99996.28;8353961;28;20420;-75
2022/03/09 07:57:29;;;;;;;5.23;3.80;;;;;;;1.86;57.86;100000.41;8349319;28;20509;-76
2022/03/09 08:01:31;;;;;;;7.53;4.73;;;;;;;2.34;56.79;99996.31;8360078;28;20079;-78
2022/03/09 08:05:32;;;;;;;5.35;3.97;;;;;;;2.78;56.19;100002.22;8357506;28;20728;-76
2022/03/09 08:09:34;;;;;;;8.23;4.07;;;;;;;3.19;55.07;100002.78;8345092;28;20407;-76
2022/03/09 08:13:35;;;;;;;7.33;3.70;;;;;;;3.71;53.79;100008.00;8341111;28;20445;-75
2022/03/09 08:17:42;;;;;;;5.13;3.53;;;;;;;4.15;51.36;100006.84;8337911;28;20793;-76
2022/03/09 08:21:45;;;;;;;6.47;3.73;;;;;;;4.44;49.45;100010.28;8340139;28;20520;-76
2022/03/09 08:25:46;;;;;;;6.33;3.97;;;;;;;4.84;48.27;100012.31;8338731;28;20419;-75
2022/03/09 08:29:50;;;;;;;5.10;3.37;;;;;;;5.22;46.71;100015.13;8349104;28;20060;-75
2022/03/09 08:33:51;;;;;;;6.33;3.83;;;;;;;5.58;45.60;100015.22;8349825;28;20091;-75
2022/03/09 08:37:53;;;;;;;6.10;4.00;;;;;;;5.83;44.24;100023.53;8360504;28;20060;-80
2022/03/09 08:41:55;;;;;;;6.30;4.07;;;;;;;6.03;43.62;100020.63;8366479;28;20080;-78
2022/03/09 08:46:14;;;;;;;8.43;3.70;;;;;;;6.33;42.69;100009.31;8365431;28;20598;-79
2022/03/09 08:50:16;;;;;;;5.20;3.97;;;;;;;6.53;42.16;100022.63;8368394;28;21026;-79
2022/03/09 08:54:40;;;;;;;6.67;4.43;;;;;;;6.71;41.91;100020.44;8369770;28;20324;-78
2022/03/09 08:58:42;;;;;;;16.98;4.75;;;;;;;6.83;41.26;100028.47;8357105;28;20076;-77
2022/03/09 09:02:44;;;;;;;7.53;5.10;;;;;;;7.00;41.12;100033.06;8360834;28;20429;-77
2022/03/09 09:06:46;;;;;;;4.60;3.97;;;;;;;7.12;41.08;100025.56;8364095;28;20048;-78
2022/03/09 09:10:48;;;;;;;8.02;5.10;;;;;;;7.33;40.50;100025.13;8360291;28;20060;-78
2022/03/09 09:14:50;;;;;;;7.15;4.70;;;;;;;7.51;39.86;100020.28;8362508;28;20331;-79
2022/03/09 09:18:52;;;;;;;7.80;4.97;;;;;;;7.68;39.23;100024.03;8362372;28;20056;-78
2022/03/09 09:22:55;;;;;;;7.57;5.37;;;;;;;7.91;38.70;100028.75;8361473;28;20624;-78
2022/03/09 09:27:08;;;;;;;6.72;4.80;;;;;;;8.04;38.52;100016.00;8360533;28;20091;-78
2022/03/09 09:31:26;;;;;;;7.82;5.55;;;;;;;8.24;37.71;100015.44;8356447;28;20556;-77
2022/03/09 09:35:28;;;;;;;9.27;6.75;;;;;;;8.40;37.67;100015.72;8358009;28;20068;-77
2022/03/09 09:39:36;;;;;;;7.03;5.50;;;;;;;8.71;36.93;100017.03;8353192;28;20052;-77
2022/03/09 09:43:38;;;;;;;7.88;4.75;;;;;;;8.84;36.16;100005.13;8354348;28;20620;-79
2022/03/09 09:47:39;;;;;;;8.82;5.75;;;;;;;8.99;35.77;100007.03;8366475;28;20072;-77
2022/03/09 09:51:43;;;;;;;7.40;6.37;;;;;;;9.06;36.01;100007.09;8353323;28;20061;-77
2022/03/09 09:55:45;;;;;;;14.35;5.72;;;;;;;9.22;36.03;100004.69;8357788;28;20782;-78
2022/03/09 09:59:47;;;;;;;9.65;5.80;;;;;;;9.24;35.45;100006.44;8345979;28;20064;-77
2022/03/09 10:03:48;;;;;;;8.70;5.47;;;;;;;9.38;34.64;99999.69;8347606;28;20121;-77
2022/03/09 10:08:05;;;;;;;9.43;6.20;;;;;;;9.66;35.25;100000.78;8348657;28;20100;-77
2022/03/09 10:12:08;;;;;;;11.10;6.72;;;;;;;9.83;34.13;99997.47;8351565;28;20144;-78
2022/03/09 10:16:21;;;;;;;7.32;5.97;;;;;;;9.90;34.29;99994.09;8362893;28;20045;-74
2022/03/09 10:20:29;;;;;;;9.00;5.95;;;;;;;10.28;35.18;99994.41;8344315;28;20147;-75
2022/03/09 10:24:35;;;;;;;8.43;6.93;;;;;;;10.49;34.08;99993.66;8343881;28;20072;-76
2022/03/09 10:28:40;;;;;;;;;;;;;;;10.57;33.36;99998.03;8344008;28;20067;-75
2022/03/09 10:32:57;;;;;;;9.40;5.95;;;;;;;10.75;34.12;99993.78;8343378;28;19925;-75
2022/03/09 10:37:06;;;;;;;7.28;6.15;;;;;;;10.88;34.01;99986.06;8338389;28;20144;-73
2022/03/09 10:41:10;;;;;;;8.48;6.47;;;;;;;10.98;32.56;99973.13;8339752;28;20373;-76
2022/03/09 10:45:13;;;;;;;8.68;6.35;;;;;;;11.09;33.02;99980.06;8342399;28;20132;-75
2022/03/09 10:49:19;;;;;;;10.65;7.45;;;;;;;11.37;33.21;99975.81;8340711;28;20128;-75
2022/03/09 10:53:20;;;;;;;7.72;6.97;;;;;;;11.74;32.75;99966.31;8344683;28;20057;-73
2022/03/09 10:57:30;;;;;;;13.38;7.55;;;;;;;11.89;33.38;99975.00;8341540;28;20161;-73
2022/03/09 11:01:32;;;;;;;10.57;8.45;;;;;;;12.08;32.36;99972.38;8343858;28;20063;-73
2022/03/09 11:05:34;;;;;;;9.07;7.10;;;;;;;12.22;33.32;99972.38;8346300;28;20056;-72
2022/03/09 11:09:40;;;;;;;13.15;8.00;;;;;;;12.34;31.84;99968.84;8346256;28;20055;-73
2022/03/09 11:13:41;;;;;;;9.30;7.97;;;;;;;12.59;31.82;99962.72;8347846;28;20056;-72
2022/03/09 11:17:48;;;;;;;11.10;8.73;;;;;;;12.71;31.69;99954.84;8350866;28;20049;-74
2022/03/09 11:21:51;;;;;;;9.93;8.65;;;;;;;12.90;31.28;99953.03;8349633;28;20056;-74
2022/03/09 11:26:11;;;;;;;13.67;9.77;;;;;;;13.10;33.68;99955.53;8344837;28;20064;-75
2022/03/09 11:30:29;;;;;;;10.85;9.00;;;;;;;13.01;34.32;99948.63;8346328;28;20049;-74
2022/03/09 11:34:47;;;;;;;14.88;8.70;;;;;;;13.32;34.51;99950.25;8350326;28;20444;-72
2022/03/09 11:38:54;;;;;;;12.52;8.57;;;;;;;13.50;34.82;99956.19;8342584;28;20053;-72
2022/03/09 11:43:29;;;;;;;9.73;8.35;;;;;;;13.57;33.96;99951.78;8343733;28;20572;-73
2022/03/09 11:48:01;;;;;;;11.18;8.65;;;;;;;13.71;34.17;99942.09;8348857;28;20160;-73
2022/03/09 11:52:23;;;;;;;11.05;8.57;;;;;;;13.93;33.86;99927.13;8345891;28;20084;-74
2022/03/09 11:56:37;;;;;;;9.13;8.13;;;;;;;14.17;33.44;99923.38;8348861;28;20076;-73
2022/03/09 12:00:59;;;;;;;10.30;9.20;;;;;;;14.21;32.81;99918.13;8346550;28;20505;-73
2022/03/09 12:05:01;;;;;;;10.23;8.48;;;;;;;14.38;32.77;99914.47;8342572;28;20049;-72
2022/03/09 12:09:03;;;;;;;16.02;9.23;;;;;;;14.26;33.02;99915.47;8349335;28;20053;-73
2022/03/09 12:13:11;;;;;;;11.93;9.67;;;;;;;14.46;32.63;99904.81;8346436;28;20052;-74
2022/03/09 12:17:30;;;;;;;11.82;8.98;;;;;;;14.55;33.08;99899.50;8348837;28;20041;-73
2022/03/09 12:21:34;;;;;;;11.13;9.75;;;;;;;14.59;33.78;99901.19;8342541;28;20103;-74
2022/03/09 12:25:49;;;;;;;14.35;9.63;;;;;;;14.61;33.19;99883.72;8345403;28;20045;-73
2022/03/09 12:29:51;;;;;;;10.13;8.57;;;;;;;14.74;33.33;99881.81;8345747;28;20145;-73
2022/03/09 12:33:55;;;;;;;11.60;8.55;;;;;;;14.63;33.26;99879.34;8344591;28;20148;-72
2022/03/09 12:37:57;;;;;;;11.13;7.68;;;;;;;14.57;32.92;99883.78;8343912;28;20053;-73
2022/03/09 12:42:00;;;;;;;8.80;7.90;;;;;;;14.62;32.50;99882.84;8341419;28;20048;-73
2022/03/09 12:46:01;;;;;;;10.10;7.78;;;;;;;14.61;32.76;99883.72;8342716;28;20143;-74
2022/03/09 12:50:04;;;;;;;9.52;7.50;;;;;;;14.61;33.11;99875.88;8343021;28;20057;-73
2022/03/09 12:54:05;;;;;;;;;;;;;;;14.74;32.70;99869.63;8340266;28;20049;-72
2022/03/09 12:58:07;;;;;;;13.05;7.68;;;;;;;14.71;32.78;99869.63;8333384;28;20325;-72
2022/03/09 13:02:08;;;;;;;12.10;7.85;;;;;;;14.73;32.98;99860.06;8645736;22;20137;-72
2022/03/09 13:06:27;;;;;;;12.93;8.10;;;;;;;14.91;32.98;99852.84;8272188;28;20056;-71
2022/03/09 13:10:31;;;;;;;10.55;8.70;;;;;;;15.18;32.97;99862.88;8283433;28;20149;-71
2022/03/09 13:14:33;;;;;;;10.65;8.23;;;;;;;15.22;31.76;99853.22;8270790;28;20061;-71
2022/03/09 13:18:35;;;;;;;9.98;8.48;;;;;;;15.27;32.62;99847.03;8294507;28;20137;-72
2022/03/09 13:22:44;;;;;;;11.48;8.18;;;;;;;15.24;32.47;99844.44;8269401;28;20156;-72
2022/03/09 13:26:46;;;;;;;10.80;8.48;;;;;;;15.41;32.17;99836.31;8275954;28;20153;-72
2022/03/09 13:30:54;;;;;;;10.27;8.25;;;;;;;15.45;32.40;99837.16;8276503;28;20561;-73
2022/03/09 13:34:58;;;;;;;9.52;7.57;;;;;;;15.43;31.89;99824.94;8272289;28;20058;-73
2022/03/09 13:39:07;;;;;;;9.68;7.68;;;;;;;15.52;32.56;99833.53;8275542;28;20418;-73
2022/03/09 13:43:09;;;;;;;9.57;7.40;;;;;;;15.40;32.62;99827.59;8270807;28;20371;-73
2022/03/09 13:47:11;;;;;;;10.68;7.25;;;;;;;15.48;32.68;99829.25;8281797;28;20066;-73
2022/03/09 13:51:13;;;;;;;9.02;7.10;;;;;;;15.40;32.54;99818.91;8277545;28;20049;-72
2022/03/09 13:55:20;;;;;;;9.48;6.80;;;;;;;15.33;32.91;99818.16;8270694;28;20053;-72
2022/03/09 13:59:40;;;;;;;7.47;5.95;;;;;;;15.26;32.66;99816.53;8270682;28;20157;-72
2022/03/09 14:03:51;;;;;;;7.43;6.53;;;;;;;15.23;33.24;99811.31;8272112;28;20506;-72
2022/03/09 14:07:53;;;;;;;8.82;6.75;;;;;;;15.36;33.01;99802.38;8271178;28;20058;-71
2022/03/09 14:11:54;;;;;;;10.10;6.32;;;;;;;15.35;32.38;99803.28;8273927;28;20094;-72
2022/03/09 14:15:59;;;;;;;8.77;6.82;;;;;;;15.18;33.42;99796.59;8277398;28;20046;-71
2022/03/09 14:20:08;;;;;;;9.30;6.70;;;;;;;15.36;33.21;99788.44;8280423;28;20394;-73
2022/03/09 14:24:12;;;;;;;10.70;6.53;;;;;;;15.22;32.44;99785.19;8281513;28;20570;-72
2022/03/09 14:28:13;;;;;;;8.80;7.50;;;;;;;15.05;32.82;99803.78;8271806;28;20042;-72
2022/03/09 14:32:15;;;;;;;9.30;6.37;;;;;;;15.15;32.87;99801.91;8277230;28;20140;-73
2022/03/09 14:36:17;;;;;;;8.85;7.88;;;;;;;15.06;32.82;99800.28;8278989;28;20152;-72
2022/03/09 14:40:21;;;;;;;9.50;6.85;;;;;;;15.02;33.61;99796.84;8279090;28;20088;-72
2022/03/09 14:44:25;;;;;;;8.13;6.32;;;;;;;15.07;33.25;99789.78;8277774;28;20092;-73
2022/03/09 14:48:27;;;;;;;;;;;;;;;15.16;32.86;99785.31;8278285;28;20138;-72
2022/03/09 14:52:29;;;;;;;9.23;6.35;;;;;;;15.06;32.47;99787.19;8275635;28;19931;-72
2022/03/09 14:56:30;;;;;;;9.23;7.13;;;;;;;15.02;32.52;99782.91;8278932;28;20361;-72
2022/03/09 15:00:32;;;;;;;7.27;5.77;;;;;;;14.96;33.27;99783.00;8274404;28;20046;-71
2022/03/09 15:04:36;;;;;;;11.23;6.35;;;;;;;15.04;33.26;99781.13;8275865;28;20054;-71
2022/03/09 15:08:38;;;;;;;10.32;6.25;;;;;;;15.07;33.13;99781.06;8268817;28;20097;-72
2022/03/09 15:12:39;;;;;;;10.53;6.23;;;;;;;15.13;33.58;99774.91;8273370;28;20053;-71
2022/03/09 15:16:41;;;;;;;9.27;6.97;;;;;;;14.96;32.97;99770.81;8277607;28;20445;-71
2022/03/09 15:20:44;;;;;;;11.98;6.35;;;;;;;15.04;33.17;99774.16;8277458;28;20060;-71
2022/03/09 15:24:47;;;;;;;9.53;6.87;;;;;;;15.02;33.64;99777.69;8282153;28;20150;-71
2022/03/09 15:28:49;;;;;;;7.32;5.97;;;;;;;15.03;33.27;99782.88;8280279;28;20054;-71
2022/03/09 15:32:51;;;;;;;12.98;5.60;;;;;;;15.10;33.80;99786.28;8263708;28;20050;-71
2022/03/09 15:36:56;;;;;;;8.90;6.73;;;;;;;15.26;34.00;99782.53;8268624;28;20442;-72
2022/03/09 15:40:58;;;;;;;10.63;6.20;;;;;;;15.28;33.58;99788.59;8267644;28;20055;-74
2022/03/09 15:44:59;;;;;;;7.13;6.38;;;;;;;15.39;33.05;99788.38;8269336;28;20052;-73
2022/03/09 15:49:01;;;;;;;6.82;5.75;;;;;;;15.48;32.31;99782.13;8277659;28;20056;-75
2022/03/09 15:53:03;;;;;;;6.07;5.32;;;;;;;18.27;28.48;99784.31;8275637;28;20092;-72
2022/03/09 15:57:08;;;;;;;8.70;7.55;;;;;;;21.64;24.20;99780.00;8275664;28;20046;-75
2022/03/09 16:01:10;;;;;;;9.05;8.15;;;;;;;21.49;24.41;99772.75;8274907;28;20057;-72
2022/03/09 16:05:16;;;;;;;9.05;8.10;;;;;;;20.85;24.83;99774.53;8276413;28;20749;-73
2022/03/09 16:09:18;;;;;;;8.85;7.78;;;;;;;20.52;25.25;99772.31;8274685;28;20081;-73
2022/03/09 16:13:20;;;;;;;8.98;8.10;;;;;;;20.02;25.34;99775.03;8274724;28;20054;-73
2022/03/09 16:17:21;;;;;;;9.45;7.72;;;;;;;20.74;24.68;99786.38;8275474;28;20438;-73
2022/03/09 16:21:24;;;;;;;9.00;8.10;;;;;;;21.32;24.49;99780.53;8275159;28;20089;-73
2022/03/09 16:25:26;;;;;;;8.20;7.35;;;;;;;21.04;24.36;99786.94;8275268;28;20518;-73
2022/03/09 16:29:27;;;;;;;10.32;8.00;;;;;;;19.14;26.34;99793.91;8275076;28;20447;-73
2022/03/09 16:33:29;;;;;;;7.90;6.85;;;;;;;17.47;29.38;99798.75;8275327;28;20054;-73
2022/03/09 16:37:30;;;;;;;8.20;7.00;;;;;;;16.44;29.88;99798.56;8273936;28;20060;-73
2022/03/09 16:41:32;;;;;;;6.63;5.97;;;;;;;15.48;32.46;99806.56;8274074;28;20049;-72
2022/03/09 16:45:34;;;;;;;9.47;6.53;;;;;;;14.57;34.41;99806.25;8279061;28;20299;-72
2022/03/09 16:49:35;;;;;;;14.30;6.03;;;;;;;13.66;36.04;99796.91;8274669;28;21366;-72
2022/03/09 16:53:37;;;;;;;10.60;5.10;;;;;;;12.99;38.29;99801.81;8273380;28;20054;-72
2022/03/09 16:57:39;;;;;;;29.92;6.18;;;;;;;12.40;40.27;99808.25;8273581;28;20050;-72
2022/03/09 17:01:40;;;;;;;41.83;6.97;;;;;;;11.95;40.53;99813.66;8274269;28;20463;-72
2022/03/09 17:05:42;;;;;;;20.77;5.50;;;;;;;11.57;41.91;99822.38;8274135;28;20077;-72
2022/03/09 17:09:44;;;;;;;22.70;5.55;;;;;;;11.16;43.39;99828.47;8274262;28;20060;-72
2022/03/09 17:13:45;;;;;;;13.85;5.20;;;;;;;10.87;43.75;99823.25;8274311;28;20058;-71
2022/03/09 17:17:48;;;;;;;15.63;4.93;;;;;;;10.58;44.94;99825.78;8273258;28;20050;-71
2022/03/09 17:21:49;;;;;;;;;;;;;;;10.27;45.19;99835.22;8272461;28;20045;-71
2022/03/09 17:25:51;;;;;;;11.43;4.65;;;;;;;10.02;45.68;99830.72;8272906;28;19929;-72
2022/03/09 17:29:53;;;;;;;7.90;4.20;;;;;;;9.75;46.88;99840.97;8274481;28;20056;-71
2022/03/09 17:33:55;;;;;;;14.87;5.13;;;;;;;9.49;47.55;99839.06;8272236;28;20054;-71
2022/03/09 17:37:57;;;;;;;;;;;;;;;9.25;47.35;99847.53;8274431;28;20052;-71
2022/03/09 17:41:58;;;;;;;5.82;4.22;;;;;;;9.03;48.34;99843.03;8274212;28;19932;-71
2022/03/09 17:45:59;;;;;;;8.15;4.68;;;;;;;8.81;49.04;99854.03;8272519;28;20068;-72
2022/03/09 17:50:04;;;;;;;10.27;5.40;;;;;;;8.63;48.68;99852.13;8273021;28;20088;-71
2022/03/09 17:54:05;;;;;;;15.57;4.70;;;;;;;8.41;49.80;99858.75;8272779;28;20060;-71
2022/03/09 17:58:07;;;;;;;8.75;5.05;;;;;;;8.20;50.57;99867.09;8269092;28;20050;-71
2022/03/09 18:02:10;;;;;;;9.98;4.85;;;;;;;8.01;50.76;99881.50;8272112;28;20192;-71
2022/03/09 18:06:12;;;;;;;10.37;5.83;;;;;;;7.76;51.80;99876.84;8272621;28;20050;-71
2022/03/09 18:10:13;;;;;;;9.27;4.70;;;;;;;7.48;53.09;99884.16;8275261;28;20708;-71
2022/03/09 18:14:15;;;;;;;7.63;4.83;;;;;;;7.22;52.32;99888.91;8278901;28;20061;-71
2022/03/09 18:18:17;;;;;;;9.50;5.55;;;;;;;7.25;52.13;99888.09;8272506;28;20478;-71
2022/03/09 18:22:19;;;;;;;7.93;5.40;;;;;;;7.09;53.95;99897.28;8280720;28;20517;-71
2022/03/09 18:26:20;;;;;;;9.87;5.43;;;;;;;6.89;54.79;99903.81;8275504;28;20427;-71
2022/03/09 18:30:22;;;;;;;9.30;5.93;;;;;;;6.70;55.16;99897.44;8280523;28;20050;-71
2022/03/09 18:34:23;;;;;;;8.07;4.93;;;;;;;6.53;55.70;99899.69;8278307;28;20081;-71
2022/03/09 18:38:25;;;;;;;12.53;5.83;;;;;;;6.40;56.40;99904.53;8275137;28;20383;-71
2022/03/09 18:42:27;;;;;;;7.73;5.83;;;;;;;6.20;57.08;99889.53;8277280;28;20050;-71
2022/03/09 18:46:29;;;;;;;9.87;5.97;;;;;;;6.05;57.56;99887.50;8278042;28;20376;-71
2022/03/09 18:50:31;;;;;;;7.60;5.45;;;;;;;5.91;58.10;99899.19;8279246;28;20405;-71
2022/03/09 18:54:32;;;;;;;7.87;5.80;;;;;;;5.78;58.99;99893.72;8274309;28;20105;-70
2022/03/09 18:58:34;;;;;;;10.03;6.33;;;;;;;5.69;59.35;99902.09;8268615;28;20074;-70
2022/03/09 19:02:35;;;;;;;10.57;6.20;;;;;;;5.55;59.69;99900.91;8263232;28;20061;-71
2022/03/09 19:06:37;;;;;;;9.50;6.22;;;;;;;5.42;60.35;99908.34;8264917;28;20049;-70